createdAt,value
2018-01-27T00:00:52.493Z,0.01
2018-01-27T00:01:52.875Z,0
2018-01-27T00:02:54.227Z,0
2018-01-27T00:03:55.199Z,0.01
2018-01-27T00:04:55.609Z,0
2018-01-27T00:05:55.926Z,0.06
2018-01-27T00:06:57.308Z,0.01
2018-01-27T00:07:57.903Z,0.01
2018-01-27T00:08:59.246Z,0.06
2018-01-27T00:10:00.314Z,0
2018-01-27T00:11:01.618Z,0
2018-01-27T00:12:02.780Z,0.01
2018-01-27T00:13:03.627Z,0
2018-01-27T00:14:04.527Z,0.01
2018-01-27T00:15:06.327Z,0
2018-01-27T00:16:07.406Z,0
2018-01-27T00:17:08.309Z,0
2018-01-27T00:18:08.819Z,0
2018-01-27T00:19:10.724Z,0
2018-01-27T00:20:10.749Z,0
2018-01-27T00:21:11.551Z,0.06
2018-01-27T00:22:12.990Z,0.01
2018-01-27T00:23:12.907Z,0
2018-01-27T00:24:15.320Z,0
2018-01-27T00:25:14.679Z,0
2018-01-27T00:26:16.455Z,0
2018-01-27T00:27:17.316Z,0
2018-01-27T00:28:18.164Z,0
2018-01-27T00:29:19.574Z,0.01
2018-01-27T00:30:20.617Z,0.01
2018-01-27T00:31:20.742Z,0
2018-01-27T00:32:22.169Z,0.01
2018-01-27T00:33:23.373Z,0
2018-01-27T00:34:25.317Z,0.01
2018-01-27T00:35:26.451Z,0
2018-01-27T00:36:26.487Z,0
2018-01-27T00:37:29.525Z,0.01
2018-01-27T00:38:29.260Z,0
2018-01-27T00:39:30.627Z,0
2018-01-27T00:40:30.539Z,0
2018-01-27T00:41:34.363Z,0
2018-01-27T00:42:32.741Z,0
2018-01-27T00:43:33.323Z,0
2018-01-27T00:44:34.182Z,0.01
2018-01-27T00:45:36.585Z,0
2018-01-27T00:46:38.331Z,0.06
2018-01-27T00:47:39.022Z,0
2018-01-27T00:48:38.445Z,0
2018-01-27T00:49:39.362Z,0
2018-01-27T00:50:39.886Z,0
2018-01-27T00:51:41.265Z,0.01
2018-01-27T00:52:42.931Z,0
2018-01-27T00:53:42.913Z,0.01
2018-01-27T00:54:44.533Z,0
2018-01-27T00:55:44.902Z,0
2018-01-27T00:56:46.315Z,0
2018-01-27T00:57:48.973Z,0
2018-01-27T00:58:47.669Z,0
2018-01-27T00:59:50.437Z,0
2018-01-27T01:00:50.549Z,0
2018-01-27T01:01:52.218Z,0
2018-01-27T01:02:53.528Z,0
2018-01-27T01:03:52.976Z,0
2018-01-27T01:04:53.958Z,0.01
2018-01-27T01:05:55.904Z,0
2018-01-27T01:06:57.299Z,0
2018-01-27T01:07:58.432Z,0.01
2018-01-27T01:08:59.709Z,0
2018-01-27T01:09:59.911Z,0
2018-01-27T01:11:00.811Z,0
2018-01-27T01:12:01.446Z,0
2018-01-27T01:13:03.542Z,0
2018-01-27T01:14:03.814Z,0
2018-01-27T01:15:04.295Z,0
2018-01-27T01:16:05.422Z,0
2018-01-27T01:17:07.025Z,0
2018-01-27T01:18:09.135Z,0
2018-01-27T01:19:09.283Z,0
2018-01-27T01:20:10.259Z,0
2018-01-27T01:21:11.726Z,0
2018-01-27T01:22:13.413Z,0.06
2018-01-27T01:23:13.439Z,0
2018-01-27T01:24:14.579Z,0.01
2018-01-27T01:25:14.814Z,0
2018-01-27T01:26:15.813Z,0.06
2018-01-27T01:27:16.785Z,0.01
2018-01-27T01:28:19.059Z,0
2018-01-27T01:29:19.443Z,0
2018-01-27T01:30:19.573Z,0.01
2018-01-27T01:31:21.734Z,0
2018-01-27T01:32:23.079Z,0.01
2018-01-27T01:33:23.327Z,0
2018-01-27T01:34:24.187Z,0
2018-01-27T01:35:26.014Z,0.01
2018-01-27T01:36:27.409Z,0
2018-01-27T01:37:28.815Z,0
2018-01-27T01:38:29.606Z,0
2018-01-27T01:39:30.034Z,0.01
2018-01-27T01:40:30.709Z,0.06
2018-01-27T01:41:31.256Z,0
2018-01-27T01:42:32.185Z,0.01
2018-01-27T01:43:34.260Z,0
2018-01-27T01:44:34.187Z,0
2018-01-27T01:46:38.535Z,0
2018-01-27T01:46:42.969Z,0
2018-01-27T01:47:44.512Z,0
2018-01-27T01:48:45.249Z,0
2018-01-27T01:49:45.679Z,0
2018-01-27T01:50:47.716Z,0
2018-01-27T01:51:47.143Z,0.06
2018-01-27T01:52:48.986Z,0
2018-01-27T01:53:49.620Z,0
2018-01-27T01:54:51.450Z,0
2018-01-27T01:55:50.801Z,0
2018-01-27T01:56:51.924Z,0
2018-01-27T01:57:54.419Z,0
2018-01-27T01:58:54.270Z,0
2018-01-27T01:59:55.886Z,0
2018-01-27T02:00:56.352Z,0
2018-01-27T02:01:57.365Z,0.01
2018-01-27T02:02:58.322Z,0.01
2018-01-27T02:03:59.857Z,0.01
2018-01-27T02:04:59.521Z,0
2018-01-27T02:06:02.013Z,0.01
2018-01-27T02:07:02.305Z,0
2018-01-27T02:08:04.143Z,0
2018-01-27T02:09:04.826Z,0
2018-01-27T02:10:05.360Z,0.01
2018-01-27T02:11:06.150Z,0
2018-01-27T02:12:07.135Z,0.01
2018-01-27T02:13:09.463Z,0.06
2018-01-27T02:14:09.658Z,0
2018-01-27T02:15:10.347Z,0
2018-01-27T02:16:11.273Z,0
2018-01-27T02:17:13.523Z,0
2018-01-27T02:18:45.359Z,0
2018-01-27T02:19:13.961Z,0
2018-01-27T02:20:16.366Z,0.01
2018-01-27T02:21:16.117Z,0.01
2018-01-27T02:22:17.064Z,0.01
2018-01-27T02:24:09.415Z,0.01
2018-01-27T02:24:21.555Z,0.01
2018-01-27T02:25:20.770Z,0
2018-01-27T02:26:22.351Z,0
2018-01-27T02:27:23.099Z,0.01
2018-01-27T02:28:24.631Z,0.01
2018-01-27T02:29:26.111Z,0
2018-01-27T02:30:25.821Z,0
2018-01-27T02:31:26.735Z,0
2018-01-27T02:32:29.498Z,0
2018-01-27T02:33:29.673Z,0
2018-01-27T02:34:30.377Z,0.01
2018-01-27T02:35:30.819Z,0
2018-01-27T02:36:32.368Z,0.01
2018-01-27T02:37:33.469Z,0
2018-01-27T02:38:34.572Z,0.01
2018-01-27T02:39:36.376Z,0
2018-01-27T02:40:36.466Z,0
2018-01-27T02:41:37.173Z,0.01
2018-01-27T02:42:38.887Z,0
2018-01-27T02:43:39.133Z,0.01
2018-01-27T02:44:40.029Z,0.01
2018-01-27T02:45:42.442Z,0.01
2018-01-27T02:46:43.613Z,0
2018-01-27T02:47:43.964Z,0
2018-01-27T02:48:45.506Z,0
2018-01-27T02:49:46.485Z,0
2018-01-27T02:50:46.985Z,0
2018-01-27T02:51:47.351Z,0
2018-01-27T02:52:48.474Z,0
2018-01-27T02:53:50.334Z,0
2018-01-27T02:54:51.596Z,0
2018-01-27T02:56:55.863Z,0.01
2018-01-27T02:56:59.187Z,0.01
2018-01-27T02:58:02.327Z,0.01
2018-01-27T02:59:01.785Z,0
2018-01-27T03:00:04.500Z,0
2018-01-27T03:01:04.020Z,0
2018-01-27T03:02:04.579Z,0.01
2018-01-27T03:03:04.949Z,0
2018-01-27T03:04:06.171Z,0
2018-01-27T03:05:08.734Z,0
2018-01-27T03:06:09.551Z,0
2018-01-27T03:07:11.253Z,0
2018-01-27T03:08:11.687Z,0.01
2018-01-27T03:09:10.976Z,0
2018-01-27T03:10:13.777Z,0
2018-01-27T03:11:13.485Z,0.06
2018-01-27T03:12:14.021Z,0
2018-01-27T03:13:14.832Z,0
2018-01-27T03:14:17.125Z,0
2018-01-27T03:15:18.125Z,0
2018-01-27T03:16:18.446Z,0
2018-01-27T03:17:20.045Z,0
2018-01-27T03:18:21.757Z,0
2018-01-27T03:19:21.385Z,0.06
2018-01-27T03:20:22.116Z,0
2018-01-27T03:21:26.510Z,0.01
2018-01-27T03:22:24.892Z,0
2018-01-27T03:23:26.423Z,0.01
2018-01-27T03:24:26.941Z,0
2018-01-27T03:25:28.151Z,0
2018-01-27T03:26:27.745Z,0
2018-01-27T03:27:29.244Z,0.01
2018-01-27T03:28:29.653Z,0
2018-01-27T03:29:32.446Z,0
2018-01-27T03:30:31.995Z,0.06
2018-01-27T03:31:34.229Z,0.01
2018-01-27T03:32:34.705Z,0
2018-01-27T03:33:36.877Z,0.01
2018-01-27T03:34:35.781Z,0
2018-01-27T03:35:38.935Z,0.01
2018-01-27T03:36:37.952Z,0
2018-01-27T03:37:39.509Z,0.06
2018-01-27T03:38:39.684Z,0.01
2018-01-27T03:39:41.927Z,0
2018-01-27T03:40:42.737Z,0.06
2018-01-27T03:41:43.398Z,0
2018-01-27T03:42:44.321Z,0.01
2018-01-27T03:43:47.917Z,0
2018-01-27T03:44:46.849Z,0
2018-01-27T03:45:48.447Z,0.01
2018-01-27T03:46:48.894Z,0
2018-01-27T03:47:49.858Z,0
2018-01-27T03:48:50.702Z,0.06
2018-01-27T03:49:51.838Z,0.01
2018-01-27T03:50:52.678Z,0.01
2018-01-27T03:51:52.972Z,0.06
2018-01-27T03:52:53.953Z,0
2018-01-27T03:53:55.168Z,0
2018-01-27T03:54:55.939Z,0
2018-01-27T03:55:57.703Z,0
2018-01-27T03:56:58.550Z,0
2018-01-27T03:57:59.032Z,0
2018-01-27T03:59:00.728Z,0
2018-01-27T04:00:02.795Z,0
2018-01-27T04:01:02.612Z,0
2018-01-27T04:02:05.505Z,0.01
2018-01-27T04:03:04.862Z,0
2018-01-27T04:04:05.141Z,0.06
2018-01-27T04:05:05.853Z,0
2018-01-27T04:06:07.229Z,0.06
2018-01-27T04:07:07.513Z,0
2018-01-27T04:08:09.227Z,0.06
2018-01-27T04:09:09.535Z,0
2018-01-27T04:10:11.243Z,0
2018-01-27T04:11:12.818Z,0
2018-01-27T04:12:14.880Z,0.06
2018-01-27T04:13:14.412Z,0.01
2018-01-27T04:14:16.495Z,0
2018-01-27T04:15:17.104Z,0
2018-01-27T04:16:17.520Z,0
2018-01-27T04:17:18.747Z,0
2018-01-27T04:18:19.830Z,0.01
2018-01-27T04:19:20.191Z,0
2018-01-27T04:20:21.145Z,0
2018-01-27T04:21:23.134Z,0
2018-01-27T04:22:23.671Z,0
2018-01-27T04:23:23.846Z,0
2018-01-27T04:24:25.075Z,0.06
2018-01-27T04:25:26.687Z,0.01
2018-01-27T04:26:27.147Z,0
2018-01-27T04:27:29.259Z,0.06
2018-01-27T04:28:29.117Z,0
2018-01-27T04:29:29.731Z,0
2018-01-27T04:30:31.422Z,0
2018-01-27T04:31:32.801Z,0
2018-01-27T04:32:33.211Z,0
2018-01-27T04:33:34.529Z,0.01
2018-01-27T04:34:34.580Z,0
2018-01-27T04:35:35.596Z,0
2018-01-27T04:36:38.549Z,0
2018-01-27T04:37:39.915Z,0
2018-01-27T04:38:41.954Z,0.01
2018-01-27T04:39:42.000Z,0
2018-01-27T04:40:42.718Z,0.06
2018-01-27T04:41:42.851Z,0
2018-01-27T04:42:43.468Z,0
2018-01-27T04:43:44.901Z,0
2018-01-27T04:44:44.490Z,0
2018-01-27T04:45:46.644Z,0
2018-01-27T04:46:47.044Z,0
2018-01-27T04:47:48.415Z,0
2018-01-27T04:48:48.447Z,0.01
2018-01-27T04:49:50.077Z,0
2018-01-27T04:50:50.981Z,0
2018-01-27T04:51:52.711Z,0.01
2018-01-27T04:52:54.011Z,0.01
2018-01-27T04:53:54.360Z,0.01
2018-01-27T04:54:57.355Z,0.01
2018-01-27T04:55:57.110Z,0
2018-01-27T04:56:58.023Z,0
2018-01-27T04:57:59.324Z,0
2018-01-27T04:59:00.381Z,0
2018-01-27T05:00:00.895Z,0
2018-01-27T05:01:02.532Z,0
2018-01-27T05:02:03.026Z,0
2018-01-27T05:03:04.325Z,0
2018-01-27T05:04:04.076Z,0
2018-01-27T05:05:05.650Z,0
2018-01-27T05:06:06.214Z,0.01
2018-01-27T05:07:08.194Z,0.01
2018-01-27T05:08:07.879Z,0
2018-01-27T05:09:09.007Z,0.06
2018-01-27T05:10:12.285Z,0
2018-01-27T05:11:10.990Z,0.06
2018-01-27T05:12:12.354Z,0
2018-01-27T05:13:13.056Z,0.01
2018-01-27T05:14:15.184Z,0
2018-01-27T05:15:14.968Z,0.01
2018-01-27T05:16:16.373Z,0
2018-01-27T05:17:17.384Z,0
2018-01-27T05:18:18.703Z,0
2018-01-27T05:19:19.428Z,0
2018-01-27T05:20:19.715Z,0
2018-01-27T05:21:21.329Z,0
2018-01-27T05:22:22.981Z,0
2018-01-27T05:23:23.280Z,0.01
2018-01-27T05:24:24.919Z,0
2018-01-27T05:25:24.444Z,0
2018-01-27T05:26:27.085Z,0
2018-01-27T05:27:28.332Z,0.01
2018-01-27T05:28:27.572Z,0
2018-01-27T05:29:28.485Z,0
2018-01-27T05:30:30.208Z,0.06
2018-01-27T05:31:31.382Z,0.01
2018-01-27T05:32:34.301Z,0.01
2018-01-27T05:33:33.284Z,0.01
2018-01-27T05:34:34.232Z,0
2018-01-27T05:35:37.500Z,0.06
2018-01-27T05:36:36.558Z,0
2018-01-27T05:37:37.716Z,0
2018-01-27T05:38:41.207Z,0
2018-01-27T05:39:39.545Z,0
2018-01-27T05:40:42.707Z,0
2018-01-27T05:41:41.631Z,0
2018-01-27T05:42:44.716Z,0.01
2018-01-27T05:43:43.021Z,0
2018-01-27T05:44:44.449Z,0
2018-01-27T05:45:48.431Z,0.06
2018-01-27T05:46:46.299Z,0
2018-01-27T05:47:48.055Z,0.01
2018-01-27T05:48:48.975Z,0
2018-01-27T05:49:49.386Z,0.06
2018-01-27T05:50:51.427Z,0
2018-01-27T05:51:52.059Z,0.01
2018-01-27T05:52:52.471Z,0.01
2018-01-27T05:53:55.634Z,0.01
2018-01-27T05:54:53.891Z,0.01
2018-01-27T05:55:55.211Z,0.01
2018-01-27T05:56:56.104Z,0.01
2018-01-27T05:57:58.716Z,0
2018-01-27T05:58:58.087Z,0
2018-01-27T06:00:01.276Z,0
2018-01-27T06:01:01.410Z,0
2018-01-27T06:02:02.234Z,0
2018-01-27T06:03:03.058Z,0.01
2018-01-27T06:04:03.505Z,0.01
2018-01-27T06:05:05.678Z,0
2018-01-27T06:06:06.428Z,0
2018-01-27T06:07:05.992Z,0
2018-01-27T06:08:08.031Z,0
2018-01-27T06:09:07.577Z,0
2018-01-27T06:10:09.427Z,0
2018-01-27T06:11:11.054Z,0
2018-01-27T06:12:13.472Z,0
2018-01-27T06:13:14.237Z,0
2018-01-27T06:14:13.967Z,0
2018-01-27T06:15:16.021Z,0.01
2018-01-27T06:16:16.570Z,0.01
2018-01-27T06:17:16.664Z,0
2018-01-27T06:18:18.480Z,0
2018-01-27T06:19:18.947Z,0
2018-01-27T06:20:20.535Z,0
2018-01-27T06:21:20.310Z,0.01
2018-01-27T06:22:21.599Z,0.01
2018-01-27T06:23:22.535Z,0.01
2018-01-27T06:24:23.546Z,0
2018-01-27T06:25:24.683Z,0.01
2018-01-27T06:26:25.180Z,0
2018-01-27T06:27:25.760Z,0
2018-01-27T06:28:27.897Z,0
2018-01-27T06:29:28.475Z,0
2018-01-27T06:30:29.216Z,0
2018-01-27T06:31:31.025Z,0
2018-01-27T06:32:33.347Z,0.01
2018-01-27T06:33:33.664Z,0
2018-01-27T06:34:32.680Z,0.06
2018-01-27T06:35:34.019Z,0
2018-01-27T06:36:35.950Z,0
2018-01-27T06:37:37.001Z,0.06
2018-01-27T06:38:37.915Z,0
2018-01-27T06:39:39.041Z,0.01
2018-01-27T06:40:39.451Z,0.06
2018-01-27T06:41:41.875Z,0
2018-01-27T06:42:41.785Z,0
2018-01-27T06:43:43.268Z,0
2018-01-27T06:44:43.125Z,0.01
2018-01-27T06:45:45.268Z,0
2018-01-27T06:46:45.226Z,0
2018-01-27T06:47:46.392Z,0
2018-01-27T06:48:47.830Z,0
2018-01-27T06:49:48.726Z,0.01
2018-01-27T06:50:49.619Z,0.06
2018-01-27T06:51:52.574Z,0
2018-01-27T06:52:52.218Z,0
2018-01-27T06:53:53.296Z,0
2018-01-27T06:54:54.122Z,0
2018-01-27T06:55:54.457Z,0
2018-01-27T06:56:55.015Z,0
2018-01-27T06:57:56.104Z,0.01
2018-01-27T06:58:57.892Z,0
2018-01-27T06:59:57.872Z,0.01
2018-01-27T07:00:59.093Z,0
2018-01-27T07:02:01.203Z,0.01
2018-01-27T07:03:03.338Z,0
2018-01-27T07:04:03.154Z,0.01
2018-01-27T07:05:03.715Z,0
2018-01-27T07:06:04.419Z,0.01
2018-01-27T07:07:04.538Z,0
2018-01-27T07:08:05.418Z,0.06
2018-01-27T07:09:08.261Z,0.01
2018-01-27T07:10:07.522Z,0.01
2018-01-27T07:11:09.636Z,0
2018-01-27T07:12:10.210Z,0
2018-01-27T07:13:11.894Z,0
2018-01-27T07:14:12.451Z,0.01
2018-01-27T07:15:13.899Z,0.01
2018-01-27T07:16:14.556Z,0
2018-01-27T07:17:15.707Z,0
2018-01-27T07:18:18.894Z,0
2018-01-27T07:19:18.460Z,0
2018-01-27T07:20:18.784Z,0.01
2018-01-27T07:21:19.383Z,0
2018-01-27T07:22:20.529Z,0.06
2018-01-27T07:23:22.775Z,0
2018-01-27T07:24:23.393Z,0
2018-01-27T07:25:23.282Z,0.01
2018-01-27T07:26:25.010Z,0
2018-01-27T07:27:25.236Z,0
2018-01-27T07:28:26.326Z,0.06
2018-01-27T07:29:27.442Z,0
2018-01-27T07:30:29.446Z,0
2018-01-27T07:31:29.876Z,0.01
2018-01-27T07:32:30.847Z,0
2018-01-27T07:33:34.329Z,0.01
2018-01-27T07:34:32.822Z,0
2018-01-27T07:35:33.677Z,0.01
2018-01-27T07:36:35.340Z,0
2018-01-27T07:37:36.806Z,0.01
2018-01-27T07:38:38.156Z,0.06
2018-01-27T07:39:37.910Z,0
2018-01-27T07:40:38.072Z,0
2018-01-27T07:41:39.231Z,0
2018-01-27T07:42:42.472Z,0
2018-01-27T07:43:41.265Z,0.01
2018-01-27T07:44:42.812Z,0
2018-01-27T07:45:42.921Z,0
2018-01-27T07:46:44.528Z,0
2018-01-27T07:47:45.606Z,0
2018-01-27T07:48:46.461Z,0.01
2018-01-27T07:49:49.087Z,0.01
2018-01-27T07:50:47.989Z,0
2018-01-27T07:51:49.899Z,0
2018-01-27T07:52:51.574Z,0
2018-01-27T07:53:52.127Z,0
2018-01-27T07:54:54.336Z,0.01
2018-01-27T07:55:55.939Z,0.01
2018-01-27T07:56:54.206Z,0.01
2018-01-27T07:57:55.771Z,0
2018-01-27T07:58:56.330Z,0
2018-01-27T07:59:58.588Z,0
2018-01-27T08:00:58.590Z,0.01
2018-01-27T08:02:00.419Z,0.01
2018-01-27T08:03:02.175Z,0
2018-01-27T08:04:02.720Z,0.01
2018-01-27T08:05:02.694Z,0
2018-01-27T08:06:03.555Z,0
2018-01-27T08:07:06.196Z,0.01
2018-01-27T08:08:06.667Z,0
2018-01-27T08:09:10.491Z,0.01
2018-01-27T08:10:07.544Z,0.01
2018-01-27T08:11:08.380Z,0.01
2018-01-27T08:12:08.760Z,0
2018-01-27T08:13:10.900Z,0
2018-01-27T08:14:12.634Z,0.01
2018-01-27T08:15:14.164Z,0.01
2018-01-27T08:16:12.698Z,0
2018-01-27T08:17:14.349Z,0
2018-01-27T08:18:16.214Z,0
2018-01-27T08:19:18.339Z,0
2018-01-27T08:20:18.531Z,0
2018-01-27T08:21:18.249Z,0.01
2018-01-27T08:22:19.754Z,0
2018-01-27T08:23:20.408Z,0
2018-01-27T08:24:21.729Z,0.01
2018-01-27T08:25:23.274Z,0
2018-01-27T08:26:22.533Z,0.01
2018-01-27T08:27:24.539Z,0
2018-01-27T08:28:26.188Z,0.01
2018-01-27T08:29:27.063Z,0
2018-01-27T08:30:27.805Z,0.01
2018-01-27T08:31:28.143Z,0
2018-01-27T08:32:29.086Z,0
2018-01-27T08:33:30.069Z,0
2018-01-27T08:34:31.002Z,0.01
2018-01-27T08:35:32.982Z,0
2018-01-27T08:36:34.085Z,0
2018-01-27T08:37:36.122Z,0
2018-01-27T08:38:36.418Z,0.01
2018-01-27T08:39:36.229Z,0
2018-01-27T08:40:38.396Z,0
2018-01-27T08:41:38.809Z,0
2018-01-27T08:42:39.940Z,0.01
2018-01-27T08:43:39.714Z,0.01
2018-01-27T08:44:42.948Z,0
2018-01-27T08:45:43.559Z,0
2018-01-27T08:46:46.211Z,0
2018-01-27T08:47:44.936Z,0
2018-01-27T08:48:45.805Z,0
2018-01-27T08:49:46.798Z,0
2018-01-27T08:50:48.186Z,0
2018-01-27T08:51:51.010Z,0
2018-01-27T08:52:49.501Z,0
2018-01-27T08:53:50.901Z,0
2018-01-27T08:54:51.531Z,0
2018-01-27T08:55:53.211Z,0
2018-01-27T08:56:54.816Z,0
2018-01-27T08:57:54.571Z,0
2018-01-27T08:58:56.672Z,0
2018-01-27T08:59:56.412Z,0
2018-01-27T09:00:59.104Z,0
2018-01-27T09:01:58.546Z,0
2018-01-27T09:02:59.849Z,0.01
2018-01-27T09:04:00.341Z,0
2018-01-27T09:05:01.527Z,0
2018-01-27T09:06:03.571Z,0
2018-01-27T09:07:03.460Z,0.01
2018-01-27T09:08:04.524Z,0.01
2018-01-27T09:09:06.468Z,0
2018-01-27T09:10:06.659Z,0
2018-01-27T09:11:07.849Z,0
2018-01-27T09:12:08.575Z,0
2018-01-27T09:13:08.927Z,0.01
2018-01-27T09:14:10.368Z,0
2018-01-27T09:15:11.283Z,0.01
2018-01-27T09:16:13.643Z,0
2018-01-27T09:17:14.200Z,0.01
2018-01-27T09:18:14.140Z,0
2018-01-27T09:19:15.747Z,0.01
2018-01-27T09:20:15.870Z,0
2018-01-27T09:21:18.725Z,0.01
2018-01-27T09:22:20.408Z,0
2018-01-27T09:23:20.240Z,0
2018-01-27T09:24:20.792Z,0
2018-01-27T09:25:22.741Z,0.01
2018-01-27T09:26:23.412Z,0
2018-01-27T09:27:24.196Z,0
2018-01-27T09:28:25.935Z,0
2018-01-27T09:29:25.512Z,0.01
2018-01-27T09:30:27.059Z,0
2018-01-27T09:31:29.420Z,0
2018-01-27T09:32:29.415Z,0.01
2018-01-27T09:33:29.749Z,0
2018-01-27T09:34:31.772Z,0
2018-01-27T09:35:31.428Z,0
2018-01-27T09:36:33.539Z,0
2018-01-27T09:37:34.494Z,0
2018-01-27T09:38:34.811Z,0.01
2018-01-27T09:39:36.791Z,0.01
2018-01-27T09:40:36.948Z,0
2018-01-27T09:41:39.010Z,0
2018-01-27T09:42:39.837Z,0
2018-01-27T09:43:41.940Z,0
2018-01-27T09:44:41.725Z,0
2018-01-27T09:45:42.238Z,0
2018-01-27T09:46:45.001Z,0
2018-01-27T09:47:44.072Z,0
2018-01-27T09:48:45.317Z,0
2018-01-27T09:49:47.612Z,0
2018-01-27T09:50:47.391Z,0.01
2018-01-27T09:51:48.307Z,0
2018-01-27T09:52:49.445Z,0.01
2018-01-27T09:53:50.197Z,0
2018-01-27T09:54:50.861Z,0
2018-01-27T09:55:54.259Z,0
2018-01-27T09:56:54.096Z,0
2018-01-27T09:57:53.653Z,0
2018-01-27T09:58:54.768Z,0
2018-01-27T09:59:56.305Z,0.01
2018-01-27T10:00:57.251Z,0.01
2018-01-27T10:01:59.621Z,0
2018-01-27T10:03:00.784Z,0
2018-01-27T10:04:00.779Z,0
2018-01-27T10:05:02.191Z,0
2018-01-27T10:06:04.787Z,0
2018-01-27T10:07:03.630Z,0.01
2018-01-27T10:08:05.583Z,0
2018-01-27T10:09:05.994Z,0
2018-01-27T10:10:07.589Z,0.01
2018-01-27T10:11:07.635Z,0
2018-01-27T10:12:08.908Z,0.01
2018-01-27T10:13:09.709Z,0
2018-01-27T10:14:10.633Z,0
2018-01-27T10:15:11.306Z,0
2018-01-27T10:16:12.698Z,0.01
2018-01-27T10:17:14.448Z,0
2018-01-27T10:18:14.031Z,0.01
2018-01-27T10:19:15.776Z,0
2018-01-27T10:20:16.266Z,0
2018-01-27T10:21:18.309Z,0
2018-01-27T10:22:18.775Z,0
2018-01-27T10:23:22.858Z,0
2018-01-27T10:24:21.463Z,0
2018-01-27T10:25:22.279Z,0
2018-01-27T10:26:21.869Z,0.01
2018-01-27T10:27:23.584Z,0.01
2018-01-27T10:28:23.953Z,0
2018-01-27T10:29:25.216Z,0
2018-01-27T10:30:26.044Z,0
2018-01-27T10:31:27.122Z,0
2018-01-27T10:32:30.984Z,0.01
2018-01-27T10:33:30.840Z,0.01
2018-01-27T10:34:33.549Z,0
2018-01-27T10:35:31.719Z,0
2018-01-27T10:36:36.554Z,0
2018-01-27T10:37:35.903Z,0
2018-01-27T10:38:36.061Z,0.01
2018-01-27T10:39:36.244Z,0.01
2018-01-27T10:40:37.076Z,0
2018-01-27T10:41:40.191Z,0
2018-01-27T10:42:39.285Z,0
2018-01-27T10:43:39.915Z,0
2018-01-27T10:44:40.794Z,0
2018-01-27T10:45:42.337Z,0
2018-01-27T10:46:42.817Z,0
2018-01-27T10:47:44.650Z,0
2018-01-27T10:48:44.082Z,0
2018-01-27T10:49:45.419Z,0.01
2018-01-27T10:50:46.178Z,0
2018-01-27T10:51:47.453Z,0
2018-01-27T10:52:49.296Z,0.01
2018-01-27T10:53:49.795Z,0
2018-01-27T10:54:50.824Z,0.01
2018-01-27T10:55:52.821Z,0
2018-01-27T10:56:53.155Z,0
2018-01-27T10:57:54.190Z,0
2018-01-27T10:58:54.209Z,0
2018-01-27T10:59:55.701Z,0
2018-01-27T11:00:56.641Z,0
2018-01-27T11:01:57.784Z,0.01
2018-01-27T11:02:58.637Z,0.01
2018-01-27T11:03:59.812Z,0
2018-01-27T11:05:01.602Z,0.01
2018-01-27T11:06:06.157Z,0.01
2018-01-27T11:07:03.587Z,0
2018-01-27T11:08:04.265Z,0
2018-01-27T11:09:05.027Z,0
2018-01-27T11:10:06.729Z,0
2018-01-27T11:11:07.467Z,0.01
2018-01-27T11:12:07.576Z,0
2018-01-27T11:13:11.935Z,0
2018-01-27T11:14:10.028Z,0
2018-01-27T11:15:10.961Z,0
2018-01-27T11:16:11.919Z,0
2018-01-27T11:17:13.027Z,0
2018-01-27T11:18:15.118Z,0
2018-01-27T11:19:14.776Z,0
2018-01-27T11:20:16.830Z,0
2018-01-27T11:21:18.058Z,0
2018-01-27T11:22:17.090Z,0
2018-01-27T11:23:20.609Z,0
2018-01-27T11:24:19.079Z,0
2018-01-27T11:25:20.365Z,0
2018-01-27T11:26:21.082Z,0
2018-01-27T11:27:23.789Z,0
2018-01-27T11:28:24.438Z,0
2018-01-27T11:29:24.796Z,0.01
2018-01-27T11:30:25.347Z,0
2018-01-27T11:31:27.901Z,0
2018-01-27T11:32:28.339Z,0
2018-01-27T11:33:29.559Z,0
2018-01-27T11:34:31.865Z,0
2018-01-27T11:35:31.968Z,0.01
2018-01-27T11:36:31.560Z,0.01
2018-01-27T11:37:32.430Z,0
2018-01-27T11:38:35.185Z,0.01
2018-01-27T11:39:34.125Z,0.01
2018-01-27T11:40:35.436Z,0
2018-01-27T11:41:38.409Z,0
2018-01-27T11:42:37.322Z,0.01
2018-01-27T11:43:39.731Z,0
2018-01-27T11:44:39.781Z,0
2018-01-27T11:45:40.978Z,0
2018-01-27T11:46:42.045Z,0
2018-01-27T11:47:42.864Z,0
2018-01-27T11:48:43.914Z,0
2018-01-27T11:49:46.097Z,0
2018-01-27T11:50:48.106Z,0.01
2018-01-27T11:51:46.356Z,0.01
2018-01-27T11:52:48.223Z,0
2018-01-27T11:53:49.536Z,0
2018-01-27T11:54:51.085Z,0
2018-01-27T11:55:50.497Z,0
2018-01-27T11:56:50.757Z,0
2018-01-27T11:57:52.345Z,0.01
2018-01-27T11:58:54.084Z,0.06
2018-01-27T11:59:54.096Z,0.01
2018-01-27T12:00:55.555Z,0
2018-01-27T12:01:56.103Z,0
2018-01-27T12:02:58.772Z,0.01
2018-01-27T12:03:58.951Z,0.01
2018-01-27T12:05:00.482Z,0
2018-01-27T12:06:00.679Z,0.01
2018-01-27T12:07:02.107Z,0
2018-01-27T12:08:02.152Z,0.01
2018-01-27T12:09:06.996Z,0.01
2018-01-27T12:10:03.804Z,0.01
2018-01-27T12:11:06.744Z,0.01
2018-01-27T12:12:07.819Z,0
2018-01-27T12:13:08.777Z,0
2018-01-27T12:14:09.674Z,0
2018-01-27T12:15:09.136Z,0.01
2018-01-27T12:16:10.007Z,0
2018-01-27T12:17:12.113Z,0
2018-01-27T12:18:17.139Z,0.01
2018-01-27T12:19:14.268Z,0.01
2018-01-27T12:20:19.385Z,0.01
2018-01-27T12:21:16.636Z,0.01
2018-01-27T12:22:16.471Z,0
2018-01-27T12:23:19.867Z,0
2018-01-27T12:24:19.126Z,0
2018-01-27T12:25:20.917Z,0.01
2018-01-27T12:26:20.333Z,0.01
2018-01-27T12:27:21.457Z,0
2018-01-27T12:28:22.235Z,0
2018-01-27T12:29:24.546Z,0.01
2018-01-27T12:30:25.715Z,0.01
2018-01-27T12:31:26.539Z,0.03
2018-01-27T12:32:26.516Z,0.03
2018-01-27T12:33:27.266Z,0.07
2018-01-27T12:34:28.701Z,0.03
2018-01-27T12:35:30.035Z,0.04
2018-01-27T12:36:32.257Z,0.07
2018-01-27T12:37:32.418Z,0.07
2018-01-27T12:38:32.210Z,0
2018-01-27T12:39:33.697Z,0.07
2018-01-27T12:40:34.551Z,0.06
2018-01-27T12:41:36.335Z,0
2018-01-27T12:42:36.189Z,0.01
2018-01-27T12:43:37.494Z,0.01
2018-01-27T12:44:43.603Z,0.01
2018-01-27T12:45:39.039Z,0
2018-01-27T12:46:40.431Z,0
2018-01-27T12:47:44.843Z,0.01
2018-01-27T12:48:42.350Z,0.03
2018-01-27T12:49:43.849Z,0.06
2018-01-27T12:50:47.733Z,0.03
2018-01-27T12:51:46.365Z,0.07
2018-01-27T12:52:47.512Z,0.03
2018-01-27T12:53:49.756Z,0.01
2018-01-27T12:54:49.929Z,0.01
2018-01-27T12:55:51.295Z,0
2018-01-27T12:56:50.637Z,0.01
2018-01-27T12:57:53.425Z,0.01
2018-01-27T12:58:52.356Z,0.03
2018-01-27T12:59:54.716Z,0.01
2018-01-27T13:00:55.589Z,0.06
2018-01-27T13:01:56.225Z,0.03
2018-01-27T13:02:56.996Z,0
2018-01-27T13:03:57.178Z,0.03
2018-01-27T13:04:58.613Z,0.03
2018-01-27T13:06:00.247Z,0.07
2018-01-27T13:07:01.059Z,0.03
2018-01-27T13:08:05.185Z,0.06
2018-01-27T13:09:02.124Z,0.03
2018-01-27T13:10:05.251Z,0.03
2018-01-27T13:11:04.645Z,0.06
2018-01-27T13:12:06.891Z,0.07
2018-01-27T13:13:07.855Z,0.03
2018-01-27T13:14:08.621Z,0.07
2018-01-27T13:15:10.499Z,0.03
2018-01-27T13:16:10.989Z,0.06
2018-01-27T13:17:10.771Z,0.03
2018-01-27T13:18:11.459Z,0.07
2018-01-27T13:19:11.667Z,0.07
2018-01-27T13:20:13.481Z,0.06
2018-01-27T13:21:14.198Z,0.03
2018-01-27T13:22:16.593Z,0.06
2018-01-27T13:23:17.955Z,0.03
2018-01-27T13:24:18.131Z,0.03
2018-01-27T13:25:19.430Z,0.04
2018-01-27T13:26:20.216Z,0.03
2018-01-27T13:27:20.911Z,0
2018-01-27T13:28:22.833Z,0
2018-01-27T13:29:24.639Z,0.04
2018-01-27T13:30:24.032Z,0.15
2018-01-27T13:31:24.582Z,10.53
2018-01-27T13:32:25.498Z,10.07
2018-01-27T13:33:27.925Z,10.53
2018-01-27T13:34:28.642Z,9.44
2018-01-27T13:35:29.141Z,9.21
2018-01-27T13:36:29.300Z,9.34
2018-01-27T13:37:30.476Z,9.87
2018-01-27T13:38:32.483Z,10.84
2018-01-27T13:39:34.571Z,11.85
2018-01-27T13:40:36.018Z,11.92
2018-01-27T13:41:34.776Z,11.98
2018-01-27T13:42:34.903Z,12.02
2018-01-27T13:43:36.373Z,12.05
2018-01-27T13:44:38.799Z,12.08
2018-01-27T13:45:38.697Z,12.05
2018-01-27T13:46:39.082Z,12.07
2018-01-27T13:47:41.653Z,12.08
2018-01-27T13:48:43.441Z,12.08
2018-01-27T13:49:43.789Z,12.08
2018-01-27T13:50:45.068Z,12.11
2018-01-27T13:51:44.381Z,12.29
2018-01-27T13:52:49.015Z,12.04
2018-01-27T13:53:46.457Z,11.92
2018-01-27T13:54:50.529Z,11.66
2018-01-27T13:55:51.195Z,10.94
2018-01-27T13:56:49.446Z,10.94
2018-01-27T13:57:50.262Z,10.69
2018-01-27T13:58:53.477Z,11.6
2018-01-27T13:59:52.526Z,11.88
2018-01-27T14:00:54.958Z,11.98
2018-01-27T14:01:54.969Z,12.04
2018-01-27T14:02:54.905Z,12.07
2018-01-27T14:03:57.071Z,12.14
2018-01-27T14:04:59.661Z,12.14
2018-01-27T14:05:58.916Z,12.2
2018-01-27T14:06:59.218Z,12.2
2018-01-27T14:08:01.112Z,12.21
2018-01-27T14:09:02.092Z,12.21
2018-01-27T14:10:01.725Z,12.21
2018-01-27T14:11:04.619Z,12.26
2018-01-27T14:12:04.549Z,12.27
2018-01-27T14:13:06.777Z,12.29
2018-01-27T14:14:06.851Z,12.46
2018-01-27T14:15:08.220Z,12.27
2018-01-27T14:16:08.951Z,12.27
2018-01-27T14:17:09.517Z,12.27
2018-01-27T14:18:10.914Z,12.3
2018-01-27T14:19:11.642Z,12.3
2018-01-27T14:20:12.683Z,12.36
2018-01-27T14:21:14.672Z,12.38
2018-01-27T14:22:14.327Z,12.39